Time;durP1;ratioP1;P1;durP2;ratioP2;P2;SDS_P1;SDS_P2;PMS_P1;PMS_P2;Temp;Humidity;BMP_temperature;BMP_pressure;BME280_temperature;BME280_humidity;BME280_pressure;Samples;Min_cycle;Max_cycle;Signal;HPM_P1;HPM_P2
2023/02/06 00:00:24;;;;;;;18.80;12.90;;;3.70;99.90;;;;;;6223776;28;20046;-79
2023/02/06 00:03:27;;;;;;;21.15;15.02;;;3.70;99.90;;;;;;6223277;28;20060;-78
2023/02/06 00:06:30;;;;;;;21.73;15.38;;;3.70;99.90;;;;;;6223015;28;20054;-78
2023/02/06 00:09:32;;;;;;;20.55;14.27;;;3.60;99.90;;;;;;6223610;28;20050;-77
2023/02/06 00:12:35;;;;;;;27.30;17.17;;;3.70;99.90;;;;;;6222890;28;20057;-78
2023/02/06 00:15:37;;;;;;;21.13;15.93;;;3.70;99.90;;;;;;6223190;28;20050;-78
2023/02/06 00:18:40;;;;;;;24.50;16.40;;;3.60;99.90;;;;;;6222754;28;20049;-78
2023/02/06 00:21:43;;;;;;;23.77;16.10;;;3.70;99.90;;;;;;6221709;28;20181;-78
2023/02/06 00:24:44;;;;;;;24.38;18.20;;;3.70;99.90;;;;;;6223077;28;20061;-78
2023/02/06 00:27:46;;;;;;;22.40;16.23;;;3.60;99.90;;;;;;6223209;28;20065;-78
2023/02/06 00:30:48;;;;;;;26.73;17.52;;;3.60;99.90;;;;;;6222531;28;20058;-78
2023/02/06 00:33:52;;;;;;;29.30;18.88;;;3.60;99.90;;;;;;6222280;28;20060;-78
2023/02/06 00:36:53;;;;;;;28.00;18.95;;;3.60;99.90;;;;;;6223291;28;20524;-78
2023/02/06 00:39:55;;;;;;;30.08;20.48;;;3.60;99.90;;;;;;6222210;28;20578;-78
2023/02/06 00:42:57;;;;;;;31.92;20.30;;;3.60;99.90;;;;;;6222240;28;20053;-78
2023/02/06 00:45:58;;;;;;;26.77;19.05;;;3.50;99.90;;;;;;6222461;28;20429;-78
2023/02/06 00:49:01;;;;;;;28.33;18.50;;;3.50;99.90;;;;;;6222403;28;20428;-78
2023/02/06 00:52:03;;;;;;;28.27;18.95;;;3.50;99.90;;;;;;6222759;28;20050;-78
2023/02/06 00:55:06;;;;;;;31.65;20.33;;;3.50;99.90;;;;;;6222828;28;20409;-78
2023/02/06 00:58:07;;;;;;;30.50;18.63;;;3.50;99.90;;;;;;6222432;28;20041;-77
2023/02/06 01:01:09;;;;;;;30.83;18.75;;;3.50;99.90;;;;;;6221943;28;20049;-79
2023/02/06 01:04:12;;;;;;;27.25;20.10;;;3.50;99.90;;;;;;6222817;28;20053;-78
2023/02/06 01:07:14;;;;;;;28.33;17.58;;;3.40;99.90;;;;;;6221863;28;20046;-78
2023/02/06 01:10:16;;;;;;;30.30;21.17;;;3.40;99.90;;;;;;6222652;28;20053;-79
2023/02/06 01:13:18;;;;;;;28.20;18.30;;;3.40;99.90;;;;;;6222358;28;20049;-78
2023/02/06 01:16:22;;;;;;;28.75;18.23;;;3.40;99.90;;;;;;6223526;28;20414;-79
2023/02/06 01:19:25;;;;;;;39.08;20.55;;;3.40;99.90;;;;;;6223014;28;20049;-78
2023/02/06 01:22:27;;;;;;;33.45;19.95;;;3.30;99.90;;;;;;6222359;28;20053;-78
2023/02/06 01:25:29;;;;;;;31.92;19.80;;;3.30;99.90;;;;;;6222542;28;20050;-79
2023/02/06 01:28:32;;;;;;;29.60;20.13;;;3.20;99.90;;;;;;6222200;28;20058;-79
2023/02/06 01:31:34;;;;;;;29.77;19.73;;;3.20;99.90;;;;;;6223113;28;20053;-79
2023/02/06 01:34:37;;;;;;;25.63;16.58;;;3.10;99.90;;;;;;6222177;28;20050;-79
2023/02/06 01:37:40;;;;;;;28.77;18.50;;;3.00;99.90;;;;;;6224935;28;20053;-78
2023/02/06 01:40:42;;;;;;;33.65;20.17;;;2.90;99.90;;;;;;6225031;28;20046;-78
2023/02/06 01:43:46;;;;;;;29.98;19.25;;;2.90;99.90;;;;;;6221969;28;20053;-79
2023/02/06 01:46:50;;;;;;;27.50;18.17;;;2.80;99.90;;;;;;6222261;28;20053;-78
2023/02/06 01:49:53;;;;;;;31.02;19.95;;;2.80;99.90;;;;;;6224757;28;20073;-78
2023/02/06 01:52:55;;;;;;;30.50;19.23;;;2.80;99.90;;;;;;6226644;28;20041;-78
2023/02/06 01:56:01;;;;;;;33.40;18.48;;;2.80;99.90;;;;;;6227645;28;20407;-79
2023/02/06 01:59:04;;;;;;;29.98;19.50;;;2.80;99.90;;;;;;6225263;28;20042;-79
2023/02/06 02:02:05;;;;;;;37.72;22.17;;;2.80;99.90;;;;;;6226818;28;20128;-79
2023/02/06 02:05:10;;;;;;;35.95;21.70;;;2.80;99.90;;;;;;6227193;28;20049;-79
2023/02/06 02:08:18;;;;;;;31.50;20.92;;;2.80;99.90;;;;;;6228241;28;20037;-79
2023/02/06 02:11:23;;;;;;;33.92;21.00;;;2.80;99.90;;;;;;6227081;28;20509;-79
2023/02/06 02:14:25;;;;;;;31.48;19.50;;;2.90;99.90;;;;;;6227081;28;20046;-79
2023/02/06 02:17:36;;;;;;;35.65;22.95;;;2.90;99.90;;;;;;6226662;28;20046;-78
2023/02/06 02:21:22;;;;;;;35.72;23.58;;;2.90;99.90;;;;;;6225401;28;20050;-78
2023/02/06 02:24:50;;;;;;;35.78;21.85;;;3.00;99.90;;;;;;6150243;28;20047;-79
2023/02/06 02:28:14;;;;;;;41.00;23.58;;;3.00;99.90;;;;;;6226603;28;20050;-79
2023/02/06 02:31:43;;;;;;;41.28;24.27;;;3.00;99.90;;;;;;6225892;28;20046;-77
2023/02/06 02:35:14;;;;;;;45.78;25.23;;;3.00;99.90;;;;;;6215420;28;20053;-79
2023/02/06 02:38:27;;;;;;;44.83;25.48;;;3.00;99.90;;;;;;6218819;28;20053;-79
2023/02/06 02:41:38;;;;;;;39.03;23.63;;;3.10;99.90;;;;;;6224919;28;20046;-78
2023/02/06 02:44:46;;;;;;;40.17;25.02;;;3.00;99.90;;;;;;6226027;28;20050;-78
2023/02/06 02:47:54;;;;;;;38.55;23.67;;;3.10;99.90;;;;;;6225442;28;20620;-78
2023/02/06 02:50:59;;;;;;;43.00;24.80;;;3.20;99.90;;;;;;6224929;28;20417;-78
2023/02/06 02:54:01;;;;;;;40.75;25.77;;;3.20;99.90;;;;;;6224734;28;20050;-78
2023/02/06 02:57:07;;;;;;;36.60;22.92;;;3.20;99.90;;;;;;6224940;28;20045;-78
2023/02/06 03:00:11;;;;;;;42.15;24.15;;;3.20;99.90;;;;;;6226069;28;20042;-78
2023/02/06 03:03:15;;;;;;;42.33;24.77;;;3.30;99.90;;;;;;6223436;28;20046;-78
2023/02/06 03:06:41;;;;;;;43.92;23.77;;;3.30;99.90;;;;;;6224510;28;20038;-78
2023/02/06 03:10:02;;;;;;;43.65;25.33;;;3.30;99.90;;;;;;6223748;28;20061;-78
2023/02/06 03:13:07;;;;;;;40.65;24.00;;;3.40;99.90;;;;;;6224102;28;20042;-78
2023/02/06 03:16:16;;;;;;;41.92;24.38;;;3.40;99.90;;;;;;6224887;28;20060;-79
2023/02/06 03:19:20;;;;;;;39.38;22.23;;;3.40;99.90;;;;;;6224281;28;20046;-78
2023/02/06 03:22:25;;;;;;;39.97;24.13;;;3.40;99.90;;;;;;6224064;28;20049;-78
2023/02/06 03:25:33;;;;;;;46.08;26.02;;;3.40;99.90;;;;;;6224870;28;20038;-78
2023/02/06 03:28:38;;;;;;;41.85;23.27;;;3.40;99.90;;;;;;6223069;28;20532;-78
2023/02/06 03:31:44;;;;;;;43.88;24.15;;;3.40;99.90;;;;;;6225147;28;20061;-78
2023/02/06 03:34:51;;;;;;;40.28;24.83;;;3.40;99.90;;;;;;6224413;28;20422;-78
2023/02/06 03:37:54;;;;;;;43.30;27.20;;;3.30;99.90;;;;;;6223867;28;20417;-77
2023/02/06 03:40:57;;;;;;;47.55;26.08;;;3.30;99.90;;;;;;6223087;28;20421;-79
2023/02/06 03:44:01;;;;;;;48.72;28.98;;;3.30;99.90;;;;;;6224462;28;20061;-78
2023/02/06 03:47:07;;;;;;;50.15;26.35;;;3.30;99.90;;;;;;6224227;28;20125;-79
2023/02/06 03:50:11;;;;;;;39.33;26.58;;;3.40;99.90;;;;;;6223743;28;20398;-78
2023/02/06 03:53:16;;;;;;;41.47;25.15;;;3.30;99.90;;;;;;6221884;28;20450;-78
2023/02/06 03:56:24;;;;;;;48.33;26.17;;;3.30;99.90;;;;;;6223844;28;20050;-78
2023/02/06 03:59:28;;;;;;;40.80;26.83;;;3.30;99.90;;;;;;6223504;28;20054;-78
2023/02/06 04:02:31;;;;;;;46.20;25.98;;;3.30;99.90;;;;;;6220708;28;20514;-78
2023/02/06 04:05:32;;;;;;;43.50;25.13;;;3.40;99.90;;;;;;6223971;28;20049;-78
2023/02/06 04:08:35;;;;;;;41.20;24.33;;;3.30;99.90;;;;;;6223839;28;20050;-78
2023/02/06 04:11:38;;;;;;;41.13;24.52;;;3.30;99.90;;;;;;6223476;28;20053;-78
2023/02/06 04:14:41;;;;;;;41.53;26.17;;;3.40;99.90;;;;;;6221306;28;20046;-78
2023/02/06 04:17:54;;;;;;;45.33;26.98;;;3.40;99.90;;;;;;6222144;28;20420;-78
2023/02/06 04:21:10;;;;;;;42.65;24.17;;;3.30;99.90;;;;;;6223469;28;20103;-78
2023/02/06 04:24:16;;;;;;;46.75;25.17;;;3.30;99.90;;;;;;6223238;28;20050;-78
2023/02/06 04:27:18;;;;;;;44.65;27.08;;;3.30;99.90;;;;;;6220789;28;20053;-78
2023/02/06 04:30:20;;;;;;;45.40;29.02;;;3.30;99.90;;;;;;6222518;28;20054;-78
2023/02/06 04:33:22;;;;;;;42.40;24.77;;;3.40;99.90;;;;;;6222996;28;20413;-77
2023/02/06 04:36:23;;;;;;;45.15;27.15;;;3.40;99.90;;;;;;6221980;28;20053;-77
2023/02/06 04:39:27;;;;;;;42.35;26.77;;;3.40;99.90;;;;;;6222955;28;20050;-77
2023/02/06 04:42:29;;;;;;;50.78;27.58;;;3.40;99.90;;;;;;6222030;28;20417;-77
2023/02/06 04:45:30;;;;;;;42.42;25.23;;;3.40;99.90;;;;;;6221783;28;20053;-77
2023/02/06 04:48:32;;;;;;;48.08;27.55;;;3.40;99.90;;;;;;6222152;28;20050;-77
2023/02/06 04:51:34;;;;;;;44.38;29.02;;;3.40;99.90;;;;;;6222457;28;20493;-77
2023/02/06 04:54:37;;;;;;;42.83;26.77;;;3.40;99.90;;;;;;6221645;28;20046;-77
2023/02/06 04:57:38;;;;;;;42.67;26.83;;;3.40;99.90;;;;;;6221578;28;20045;-77
2023/02/06 05:00:40;;;;;;;42.13;26.23;;;3.40;99.90;;;;;;6221582;28;20529;-77
2023/02/06 05:03:42;;;;;;;42.78;26.55;;;3.40;99.90;;;;;;6221502;28;20417;-77
2023/02/06 05:06:44;;;;;;;44.35;29.58;;;3.40;99.90;;;;;;6221823;28;20046;-77
2023/02/06 05:09:47;;;;;;;39.78;26.73;;;3.40;99.90;;;;;;6221590;28;20052;-77
2023/02/06 05:12:50;;;;;;;37.28;24.42;;;3.40;99.90;;;;;;6221400;28;20042;-77
2023/02/06 05:15:52;;;;;;;44.08;25.48;;;3.40;99.90;;;;;;6221437;28;20131;-77
2023/02/06 05:18:55;;;;;;;44.42;26.48;;;3.40;99.90;;;;;;6222200;28;20058;-77
2023/02/06 05:21:56;;;;;;;35.00;23.95;;;3.40;99.90;;;;;;6221211;28;20050;-77
2023/02/06 05:25:00;;;;;;;36.00;24.52;;;3.40;99.90;;;;;;6222653;28;20056;-77
2023/02/06 05:28:05;;;;;;;40.78;25.75;;;3.40;99.90;;;;;;6226895;28;20068;-77
2023/02/06 05:31:07;;;;;;;39.72;24.50;;;3.40;99.90;;;;;;6226053;28;20621;-77
2023/02/06 05:34:10;;;;;;;41.10;26.10;;;3.50;99.90;;;;;;6226152;28;20042;-77
2023/02/06 05:37:22;;;;;;;43.20;27.67;;;3.50;99.90;;;;;;6226231;28;20042;-76
2023/02/06 05:40:27;;;;;;;38.55;25.75;;;3.60;99.90;;;;;;6224757;28;20100;-77
2023/02/06 05:43:29;;;;;;;41.17;23.42;;;3.50;99.90;;;;;;6226600;28;20046;-77
2023/02/06 05:46:31;;;;;;;39.13;24.85;;;3.50;99.90;;;;;;6225873;28;20057;-77
2023/02/06 05:49:33;;;;;;;39.97;27.55;;;3.50;99.90;;;;;;6226713;28;20481;-77
2023/02/06 05:52:34;;;;;;;35.38;23.85;;;3.40;99.90;;;;;;6225905;28;20052;-77
2023/02/06 05:55:38;;;;;;;36.97;23.15;;;3.40;99.90;;;;;;6226178;28;20461;-77
2023/02/06 05:58:39;;;;;;;40.80;24.05;;;3.40;99.90;;;;;;6225267;28;20417;-77
2023/02/06 06:01:41;;;;;;;41.58;26.38;;;3.40;99.90;;;;;;6225453;28;20501;-77
2023/02/06 06:04:43;;;;;;;36.47;23.00;;;3.40;99.90;;;;;;6225763;28;20049;-76
2023/02/06 06:07:44;;;;;;;39.85;25.65;;;3.40;99.90;;;;;;6227802;28;20041;-77
2023/02/06 06:10:49;;;;;;;37.50;24.55;;;3.30;99.90;;;;;;6225627;28;20528;-77
2023/02/06 06:13:51;;;;;;;34.42;22.33;;;3.30;99.90;;;;;;6223943;28;20065;-77
2023/02/06 06:16:53;;;;;;;43.42;23.98;;;3.30;99.90;;;;;;6225593;28;20401;-77
2023/02/06 06:19:54;;;;;;;36.65;23.42;;;3.30;99.90;;;;;;6228097;28;20441;-78
2023/02/06 06:22:56;;;;;;;38.90;24.70;;;3.30;99.90;;;;;;6229207;28;20533;-78
2023/02/06 06:25:59;;;;;;;40.55;22.70;;;3.30;99.90;;;;;;6230016;28;20050;-78
2023/02/06 06:29:01;;;;;;;45.72;25.98;;;3.30;99.90;;;;;;6229578;28;20054;-78
2023/02/06 06:32:03;;;;;;;41.97;26.42;;;3.40;99.90;;;;;;6230757;28;20049;-78
2023/02/06 06:35:05;;;;;;;43.67;24.52;;;3.30;99.90;;;;;;6231191;28;20046;-78
2023/02/06 06:38:07;;;;;;;38.78;22.38;;;3.40;99.90;;;;;;6230524;28;20049;-78
2023/02/06 06:41:10;;;;;;;40.95;24.65;;;3.40;99.90;;;;;;6231291;28;20057;-78
2023/02/06 06:44:12;;;;;;;46.20;29.35;;;3.40;99.90;;;;;;6232546;28;20050;-78
2023/02/06 06:47:13;;;;;;;33.58;24.88;;;3.40;99.90;;;;;;6230201;28;20391;-78
2023/02/06 06:50:15;;;;;;;37.70;24.55;;;3.40;99.90;;;;;;6230063;28;20493;-78
2023/02/06 06:53:17;;;;;;;36.25;23.95;;;3.40;99.90;;;;;;6229943;28;20044;-78
2023/02/06 06:56:20;;;;;;;37.97;24.17;;;3.40;99.90;;;;;;6230738;28;20053;-78
2023/02/06 06:59:22;;;;;;;35.58;23.27;;;3.40;99.90;;;;;;6230910;28;20710;-78
2023/02/06 07:02:24;;;;;;;39.35;25.38;;;3.30;99.90;;;;;;6231180;28;20034;-78
2023/02/06 07:05:25;;;;;;;37.60;24.23;;;3.20;99.90;;;;;;6231006;28;20048;-78
2023/02/06 07:08:28;;;;;;;34.60;23.27;;;3.20;99.90;;;;;;6227811;28;20050;-78
2023/02/06 07:11:32;;;;;;;37.50;25.08;;;3.20;99.90;;;;;;6227959;28;20050;-78
2023/02/06 07:14:33;;;;;;;37.17;24.95;;;3.20;99.90;;;;;;6228129;28;20049;-78
2023/02/06 07:17:35;;;;;;;55.83;35.50;;;3.20;99.90;;;;;;6228567;28;20054;-80
2023/02/06 07:20:37;;;;;;;50.53;29.95;;;3.30;99.90;;;;;;6231865;28;20141;-78
2023/02/06 07:23:39;;;;;;;36.88;24.27;;;3.30;99.90;;;;;;6230956;28;20056;-79
2023/02/06 07:26:42;;;;;;;43.65;26.10;;;3.30;99.90;;;;;;6233979;28;20133;-79
2023/02/06 07:29:44;;;;;;;36.97;25.38;;;3.20;99.90;;;;;;6230111;28;20053;-79
2023/02/06 07:32:45;;;;;;;49.35;28.33;;;3.30;99.90;;;;;;6230060;28;20041;-78
2023/02/06 07:35:47;;;;;;;42.22;24.48;;;3.30;99.90;;;;;;6229903;28;20057;-78
2023/02/06 07:38:49;;;;;;;45.00;25.88;;;3.30;99.90;;;;;;6230588;28;20046;-78
2023/02/06 07:41:52;;;;;;;33.58;22.95;;;3.30;99.90;;;;;;6228739;28;20046;-78
2023/02/06 07:44:53;;;;;;;42.25;30.38;;;3.30;99.90;;;;;;6229928;28;20042;-79
2023/02/06 07:47:55;;;;;;;40.17;25.02;;;3.30;99.90;;;;;;6225060;28;20049;-77
2023/02/06 07:50:57;;;;;;;40.30;24.23;;;3.20;99.90;;;;;;6200454;28;20064;-78
2023/02/06 07:53:59;;;;;;;39.95;23.60;;;3.30;99.90;;;;;;6232017;28;20056;-79
2023/02/06 07:57:02;;;;;;;33.33;23.92;;;3.40;99.90;;;;;;6231815;28;20042;-78
2023/02/06 08:00:05;;;;;;;37.30;24.88;;;3.40;99.90;;;;;;6233457;28;20053;-79
2023/02/06 08:03:07;;;;;;;39.67;23.83;;;3.40;99.90;;;;;;6230600;28;20050;-79
2023/02/06 08:06:10;;;;;;;34.55;21.75;;;3.50;99.90;;;;;;6232184;28;20048;-79
2023/02/06 08:09:15;;;;;;;35.40;24.20;;;3.50;99.90;;;;;;6231516;28;20101;-79
2023/02/06 08:12:19;;;;;;;39.35;25.70;;;3.50;99.90;;;;;;6231600;28;20085;-79
2023/02/06 08:15:20;;;;;;;37.03;25.42;;;3.50;99.90;;;;;;6230946;28;20332;-78
2023/02/06 08:18:22;;;;;;;36.67;24.80;;;3.50;99.90;;;;;;6231831;28;20410;-79
2023/02/06 08:21:25;;;;;;;36.90;22.98;;;3.60;99.90;;;;;;6232590;28;20046;-78
2023/02/06 08:24:27;;;;;;;38.63;26.00;;;3.60;99.90;;;;;;6233101;28;20053;-78
2023/02/06 08:27:30;;;;;;;38.15;25.55;;;3.80;99.90;;;;;;6234040;28;20057;-79
2023/02/06 08:30:33;;;;;;;37.63;23.55;;;3.90;99.90;;;;;;6234020;28;20050;-79
2023/02/06 08:33:35;;;;;;;36.47;23.13;;;4.00;99.90;;;;;;6232555;28;20065;-79
2023/02/06 08:36:36;;;;;;;35.90;23.13;;;4.10;99.90;;;;;;6232072;28;20050;-79
2023/02/06 08:39:38;;;;;;;30.65;21.77;;;4.20;99.90;;;;;;6230802;28;20046;-79
2023/02/06 08:42:41;;;;;;;32.50;20.73;;;4.30;99.90;;;;;;6224587;28;20417;-78
2023/02/06 08:45:48;;;;;;;30.35;21.55;;;4.30;99.90;;;;;;6225715;28;20053;-78
2023/02/06 08:48:56;;;;;;;37.55;23.23;;;4.30;99.90;;;;;;6224752;28;20046;-79
2023/02/06 08:51:59;;;;;;;;;;;4.30;99.90;;;;;;6223822;28;20172;-78
2023/02/06 08:55:01;;;;;;;34.95;23.30;;;4.30;99.90;;;;;;6227525;28;19921;-78
2023/02/06 08:58:04;;;;;;;30.20;21.08;;;4.30;99.90;;;;;;6226431;28;20052;-78
2023/02/06 09:01:07;;;;;;;29.45;20.05;;;4.40;99.90;;;;;;6225994;28;20048;-78
2023/02/06 09:04:10;;;;;;;36.83;24.33;;;4.40;99.90;;;;;;6226805;28;20053;-78
2023/02/06 09:07:12;;;;;;;29.88;20.90;;;4.60;99.90;;;;;;6228610;28;20077;-78
2023/02/06 09:10:15;;;;;;;30.70;19.65;;;5.00;99.90;;;;;;6230338;28;20042;-79
2023/02/06 09:13:17;;;;;;;32.92;21.10;;;5.20;99.90;;;;;;6231635;28;20042;-79
2023/02/06 09:16:20;;;;;;;29.50;18.90;;;5.50;99.90;;;;;;6230459;28;20050;-79
2023/02/06 09:19:22;;;;;;;30.48;21.48;;;5.70;99.90;;;;;;6227200;28;20042;-78
2023/02/06 09:22:23;;;;;;;24.25;19.23;;;5.90;99.90;;;;;;6229341;28;20050;-79
2023/02/06 09:25:25;;;;;;;28.20;17.20;;;6.00;99.90;;;;;;6229995;28;20045;-79
2023/02/06 09:28:28;;;;;;;26.17;18.83;;;6.00;99.90;;;;;;6227795;28;20049;-78
2023/02/06 09:31:31;;;;;;;28.55;15.77;;;6.00;99.90;;;;;;6227376;28;20050;-79
2023/02/06 09:34:33;;;;;;;25.73;17.42;;;5.90;99.90;;;;;;6226988;28;20054;-78
2023/02/06 09:37:35;;;;;;;24.92;16.70;;;5.90;99.90;;;;;;6229655;28;20050;-77
2023/02/06 09:40:37;;;;;;;19.60;15.70;;;6.00;99.90;;;;;;6236221;28;20137;-79
2023/02/06 09:43:47;;;;;;;20.10;14.65;;;6.20;99.90;;;;;;6230753;28;20057;-78
2023/02/06 09:46:52;;;;;;;19.42;13.02;;;6.40;99.90;;;;;;6222319;28;20052;-78
2023/02/06 09:49:58;;;;;;;16.40;12.68;;;6.50;99.90;;;;;;6225558;28;20195;-79
2023/02/06 09:53:12;;;;;;;19.85;14.18;;;6.60;99.90;;;;;;6224323;28;20042;-79
2023/02/06 09:56:22;;;;;;;15.20;12.82;;;6.80;99.90;;;;;;6227490;28;20050;-79
2023/02/06 09:59:31;;;;;;;13.05;10.60;;;7.10;99.90;;;;;;6227766;28;20072;-78
2023/02/06 10:02:51;;;;;;;14.63;11.13;;;7.30;99.90;;;;;;6226984;28;20045;-79
2023/02/06 10:06:03;;;;;;;11.40;9.23;;;7.40;99.90;;;;;;6227266;28;20053;-79
2023/02/06 10:09:11;;;;;;;13.77;10.68;;;7.40;99.90;;;;;;6225834;28;20050;-78
2023/02/06 10:12:17;;;;;;;20.13;12.20;;;7.40;99.90;;;;;;6229386;28;20053;-79
2023/02/06 10:15:29;;;;;;;14.30;10.63;;;7.50;99.90;;;;;;6228285;28;20084;-79
2023/02/06 10:18:35;;;;;;;21.33;11.30;;;7.50;99.90;;;;;;6228181;28;20425;-79
2023/02/06 10:21:40;;;;;;;12.80;8.48;;;7.40;99.90;;;;;;6227544;28;20068;-79
2023/02/06 10:24:50;;;;;;;8.32;6.72;;;7.30;99.90;;;;;;6228207;28;20049;-79
2023/02/06 10:27:57;;;;;;;12.98;8.77;;;7.00;99.90;;;;;;6228918;28;20394;-79
2023/02/06 10:31:26;;;;;;;24.42;14.98;;;7.00;99.90;;;;;;6228086;28;20053;-79
2023/02/06 10:34:59;;;;;;;20.40;13.45;;;7.00;99.90;;;;;;6230170;28;20050;-79
2023/02/06 10:38:30;;;;;;;21.30;14.52;;;7.00;99.90;;;;;;6225712;28;20132;-79
2023/02/06 10:41:39;;;;;;;23.00;16.17;;;7.00;99.90;;;;;;6231017;28;20049;-78
2023/02/06 10:44:48;;;;;;;16.45;13.32;;;7.00;99.90;;;;;;6231818;28;20065;-78
2023/02/06 10:47:55;;;;;;;16.80;12.48;;;7.00;99.90;;;;;;6231523;28;20049;-79
2023/02/06 10:51:07;;;;;;;23.20;15.68;;;7.00;99.90;;;;;;6227330;28;20061;-81
2023/02/06 10:54:15;;;;;;;20.45;13.98;;;7.00;99.90;;;;;;6226684;28;20061;-79
2023/02/06 10:57:20;;;;;;;17.30;13.43;;;6.90;99.90;;;;;;6227280;28;20052;-80
2023/02/06 11:00:25;;;;;;;16.92;11.60;;;6.90;99.90;;;;;;6230741;28;20117;-77
2023/02/06 11:03:30;;;;;;;15.80;10.55;;;6.90;99.90;;;;;;6229614;28;20493;-78
2023/02/06 11:06:33;;;;;;;14.70;10.98;;;6.80;99.90;;;;;;6228502;28;20423;-79
2023/02/06 11:09:34;;;;;;;16.55;10.60;;;6.80;99.90;;;;;;6230061;28;20425;-79
2023/02/06 11:12:40;;;;;;;17.67;11.52;;;6.80;99.90;;;;;;6228416;28;20046;-79
2023/02/06 11:15:47;;;;;;;15.50;11.93;;;6.70;99.90;;;;;;6226514;28;20057;-79
2023/02/06 11:18:52;;;;;;;14.95;10.68;;;6.80;99.90;;;;;;6225962;28;20052;-79
2023/02/06 11:21:56;;;;;;;13.18;9.32;;;6.70;99.90;;;;;;6225145;28;20053;-79
2023/02/06 11:25:01;;;;;;;12.57;9.70;;;6.70;99.90;;;;;;6225203;28;20103;-79
2023/02/06 11:28:04;;;;;;;13.68;10.88;;;6.70;99.90;;;;;;6226005;28;20053;-78
2023/02/06 11:31:08;;;;;;;12.27;8.93;;;6.60;99.90;;;;;;6225557;28;20046;-79
2023/02/06 11:34:22;;;;;;;12.48;7.97;;;6.70;99.90;;;;;;6225150;28;20119;-78
2023/02/06 11:37:36;;;;;;;15.20;11.68;;;6.70;99.90;;;;;;6224888;28;20133;-81
2023/02/06 11:40:38;;;;;;;10.82;8.15;;;6.70;99.90;;;;;;6226475;28;20065;-78
2023/02/06 11:43:48;;;;;;;12.55;9.50;;;6.70;99.90;;;;;;6225064;28;20056;-78
2023/02/06 11:46:50;;;;;;;10.45;8.45;;;6.70;99.90;;;;;;6225155;28;20054;-79
2023/02/06 11:49:53;;;;;;;10.32;8.45;;;6.70;99.90;;;;;;6225511;28;20034;-79
2023/02/06 11:53:00;;;;;;;11.70;7.78;;;6.70;99.90;;;;;;6224088;28;20521;-78
2023/02/06 11:56:05;;;;;;;9.85;7.75;;;6.60;99.90;;;;;;6225277;28;20050;-78
2023/02/06 11:59:17;;;;;;;7.53;6.78;;;6.60;99.90;;;;;;6224871;28;20469;-79
2023/02/06 12:02:26;;;;;;;12.25;7.95;;;6.70;99.90;;;;;;6224060;28;20124;-79
2023/02/06 12:05:34;;;;;;;9.43;6.72;;;6.70;99.90;;;;;;6224359;28;20046;-79
2023/02/06 12:08:40;;;;;;;;;;;6.80;99.90;;;;;;6226498;28;20049;-79
2023/02/06 12:11:50;;;;;;;8.93;6.43;;;6.90;99.90;;;;;;6226661;28;19922;-78
2023/02/06 12:14:56;;;;;;;8.50;5.50;;;6.90;99.90;;;;;;6225810;28;20177;-79
2023/02/06 12:18:04;;;;;;;10.10;5.72;;;7.00;99.90;;;;;;6225839;28;20045;-79
2023/02/06 12:21:15;;;;;;;8.65;6.00;;;7.00;99.90;;;;;;6228375;28;20045;-80
2023/02/06 12:24:30;;;;;;;10.52;5.57;;;7.00;99.90;;;;;;6227873;28;20456;-79
2023/02/06 12:27:37;;;;;;;7.72;5.72;;;6.90;99.90;;;;;;6228168;28;20046;-77
2023/02/06 12:30:47;;;;;;;10.13;4.57;;;6.90;99.90;;;;;;6227853;28;20050;-79
2023/02/06 12:33:51;;;;;;;7.78;4.80;;;6.80;99.90;;;;;;6226818;28;20076;-79
2023/02/06 12:37:09;;;;;;;14.25;8.13;;;6.80;99.90;;;;;;6226882;28;20477;-80
2023/02/06 12:40:32;;;;;;;7.93;4.43;;;6.80;99.90;;;;;;6227050;28;20045;-81
2023/02/06 12:43:36;;;;;;;8.32;6.57;;;6.80;99.90;;;;;;6228147;28;20054;-81
2023/02/06 12:46:39;;;;;;;13.85;7.32;;;6.90;99.90;;;;;;6223880;28;20056;-80
2023/02/06 12:49:54;;;;;;;11.40;5.95;;;7.00;99.90;;;;;;6223641;28;20050;-80
2023/02/06 12:53:02;;;;;;;17.60;7.47;;;7.00;99.90;;;;;;6222151;28;20046;-81
2023/02/06 12:56:09;;;;;;;4.60;2.80;;;7.00;99.90;;;;;;6223996;28;20065;-80
2023/02/06 12:59:35;;;;;;;5.40;2.40;;;7.00;99.90;;;;;;6223760;28;20041;-80
2023/02/06 13:03:08;;;;;;;9.38;3.63;;;6.90;99.90;;;;;;6223556;28;20042;-80
2023/02/06 13:06:17;;;;;;;3.33;2.35;;;6.90;99.90;;;;;;6223216;28;20052;-79
2023/02/06 13:09:25;;;;;;;4.60;2.95;;;7.10;99.90;;;;;;6224736;28;20521;-78
2023/02/06 13:12:30;;;;;;;6.15;3.20;;;7.10;99.90;;;;;;6222930;28;20045;-80
2023/02/06 13:15:37;;;;;;;3.35;2.83;;;7.00;99.90;;;;;;6224259;28;20057;-81
2023/02/06 13:18:53;;;;;;;2.75;2.53;;;7.10;99.90;;;;;;6224109;28;20042;-80
2023/02/06 13:22:27;;;;;;;10.75;7.13;;;7.10;99.90;;;;;;6223131;28;20437;-80
2023/02/06 13:25:52;;;;;;;11.55;7.10;;;7.10;99.90;;;;;;6212710;28;20042;-80
2023/02/06 13:28:59;;;;;;;12.45;7.57;;;7.10;99.90;;;;;;6222762;28;20100;-80
2023/02/06 13:32:44;;;;;;;7.97;3.65;;;7.20;99.90;;;;;;6225054;28;20046;-80
2023/02/06 13:35:56;;;;;;;5.75;3.90;;;7.20;99.90;;;;;;6209499;28;20089;-79
2023/02/06 13:39:13;;;;;;;3.60;3.05;;;7.40;99.90;;;;;;6224133;28;20057;-80
2023/02/06 13:42:47;;;;;;;4.97;4.45;;;7.30;99.90;;;;;;6236118;28;20053;-80
2023/02/06 13:45:54;;;;;;;5.80;3.85;;;7.30;99.90;;;;;;6223396;28;20056;-80
2023/02/06 13:49:25;;;;;;;5.90;3.78;;;7.30;99.90;;;;;;6239053;28;20044;-79
2023/02/06 13:52:34;;;;;;;4.35;3.53;;;7.30;99.90;;;;;;6243171;28;20052;-80
2023/02/06 13:55:48;;;;;;;4.80;4.30;;;7.70;99.90;;;;;;6240079;28;20050;-80
2023/02/06 13:58:53;;;;;;;6.88;4.30;;;7.70;99.90;;;;;;6241453;28;20057;-79
2023/02/06 14:01:55;;;;;;;5.72;4.13;;;7.60;99.90;;;;;;6241071;28;20073;-79
2023/02/06 14:04:58;;;;;;;5.90;4.70;;;7.60;99.90;;;;;;6240886;28;20053;-79
2023/02/06 14:08:15;;;;;;;7.25;3.88;;;7.60;99.90;;;;;;6242018;28;20060;-79
2023/02/06 14:11:32;;;;;;;6.30;3.33;;;7.60;99.90;;;;;;6240209;28;20049;-79
2023/02/06 14:14:51;;;;;;;4.15;3.60;;;7.40;99.90;;;;;;6241671;28;20041;-79
2023/02/06 14:18:19;;;;;;;5.78;3.65;;;7.40;99.90;;;;;;6241101;28;20069;-79
2023/02/06 14:21:34;;;;;;;4.35;3.42;;;7.30;99.90;;;;;;6239258;28;20050;-80
2023/02/06 14:25:04;;;;;;;4.35;3.50;;;7.50;99.90;;;;;;6242286;28;20046;-79
2023/02/06 14:28:14;;;;;;;6.70;3.40;;;7.30;99.90;;;;;;6242424;28;20164;-79
2023/02/06 14:31:28;;;;;;;7.70;3.72;;;7.00;99.90;;;;;;6236774;28;20042;-79
2023/02/06 14:34:43;;;;;;;5.38;4.13;;;6.80;99.90;;;;;;6235095;28;20140;-79
2023/02/06 14:38:01;;;;;;;4.13;3.72;;;6.80;99.90;;;;;;6238070;28;20046;-79
2023/02/06 14:41:03;;;;;;;5.50;3.83;;;6.70;99.90;;;;;;6235617;28;20050;-79
2023/02/06 14:44:09;;;;;;;6.50;4.40;;;6.60;99.90;;;;;;6236749;28;20056;-79
2023/02/06 14:47:19;;;;;;;6.45;4.43;;;6.50;99.90;;;;;;6236576;28;20048;-79
2023/02/06 14:50:23;;;;;;;4.13;3.65;;;6.40;99.90;;;;;;6233372;28;20041;-79
2023/02/06 14:53:29;;;;;;;7.53;4.95;;;6.30;99.90;;;;;;6235764;28;20061;-79
2023/02/06 14:56:32;;;;;;;6.50;4.05;;;6.30;99.90;;;;;;6235383;28;20064;-79
2023/02/06 14:59:34;;;;;;;4.95;4.00;;;6.50;99.90;;;;;;6238368;28;20459;-79
2023/02/06 15:02:37;;;;;;;3.83;3.45;;;6.50;99.90;;;;;;6239369;28;20579;-79
2023/02/06 15:05:39;;;;;;;11.27;4.82;;;6.50;99.90;;;;;;6237439;28;20046;-79
2023/02/06 15:08:47;;;;;;;5.88;4.53;;;6.50;99.90;;;;;;6238773;28;20050;-78
2023/02/06 15:11:51;;;;;;;6.18;4.03;;;6.40;99.90;;;;;;6237846;28;20056;-78
2023/02/06 15:14:54;;;;;;;4.97;3.72;;;6.40;99.90;;;;;;6237773;28;20061;-80
2023/02/06 15:17:59;;;;;;;4.50;3.38;;;6.30;99.90;;;;;;6238543;28;20042;-78
2023/02/06 15:21:03;;;;;;;5.35;3.65;;;6.20;99.90;;;;;;6240034;28;20046;-79
2023/02/06 15:24:15;;;;;;;6.53;4.65;;;6.20;99.90;;;;;;6233147;28;20050;-79
2023/02/06 15:27:26;;;;;;;4.80;4.07;;;6.10;99.90;;;;;;6240938;28;20052;-79
2023/02/06 15:30:28;;;;;;;7.07;3.97;;;6.00;99.90;;;;;;6237717;28;20050;-79
2023/02/06 15:33:34;;;;;;;3.95;2.75;;;6.00;99.90;;;;;;6235439;28;20054;-79
2023/02/06 15:36:38;;;;;;;3.40;3.10;;;5.90;99.90;;;;;;6237877;28;20144;-80
2023/02/06 15:39:40;;;;;;;8.32;3.97;;;6.00;99.90;;;;;;6237858;28;20053;-79
2023/02/06 15:42:42;;;;;;;5.28;3.58;;;5.90;99.90;;;;;;6236991;28;20048;-80
2023/02/06 15:45:44;;;;;;;5.60;3.67;;;5.80;99.90;;;;;;6238951;28;20050;-79
2023/02/06 15:48:52;;;;;;;9.02;5.28;;;5.80;99.90;;;;;;6229713;28;20425;-79
2023/02/06 15:51:57;;;;;;;6.95;5.00;;;5.70;99.90;;;;;;6230481;28;20046;-81
2023/02/06 15:55:00;;;;;;;6.97;4.65;;;5.70;99.90;;;;;;6235770;28;20042;-80
2023/02/06 15:58:04;;;;;;;5.18;3.78;;;5.70;99.90;;;;;;6237177;28;20136;-80
2023/02/06 16:01:12;;;;;;;8.52;5.55;;;5.70;99.90;;;;;;6238219;28;20045;-78
2023/02/06 16:04:18;;;;;;;7.07;4.95;;;5.70;99.90;;;;;;6237525;28;20050;-80